sensor_id;sensor_type;location;lat;lon;timestamp;P1;durP1;ratioP1;P2;durP2;ratioP2
41921;SDS011;27609;51.002;5.354;2022-08-25T00:01:32;7.05;;;3.67;;
41921;SDS011;27609;51.002;5.354;2022-08-25T00:04:06;8.35;;;3.15;;
41921;SDS011;27609;51.002;5.354;2022-08-25T00:06:35;5.50;;;3.67;;
41921;SDS011;27609;51.002;5.354;2022-08-25T00:09:02;8.95;;;3.50;;
41921;SDS011;27609;51.002;5.354;2022-08-25T00:11:29;11.25;;;3.33;;
41921;SDS011;27609;51.002;5.354;2022-08-25T00:13:57;5.72;;;3.47;;
41921;SDS011;27609;51.002;5.354;2022-08-25T00:16:28;6.80;;;4.05;;
41921;SDS011;27609;51.002;5.354;2022-08-25T00:19:00;4.95;;;3.55;;
41921;SDS011;27609;51.002;5.354;2022-08-25T00:21:30;8.57;;;4.20;;
41921;SDS011;27609;51.002;5.354;2022-08-25T00:23:57;10.63;;;3.90;;
41921;SDS011;27609;51.002;5.354;2022-08-25T00:26:28;6.82;;;3.83;;
41921;SDS011;27609;51.002;5.354;2022-08-25T00:28:54;6.47;;;3.72;;
41921;SDS011;27609;51.002;5.354;2022-08-25T00:31:21;6.35;;;3.47;;
41921;SDS011;27609;51.002;5.354;2022-08-25T00:33:47;7.57;;;3.75;;
41921;SDS011;27609;51.002;5.354;2022-08-25T00:36:14;7.53;;;4.45;;
41921;SDS011;27609;51.002;5.354;2022-08-25T00:38:42;11.30;;;5.00;;
41921;SDS011;27609;51.002;5.354;2022-08-25T00:41:10;5.50;;;3.95;;
41921;SDS011;27609;51.002;5.354;2022-08-25T00:46:13;4.38;;;3.83;;
41921;SDS011;27609;51.002;5.354;2022-08-25T00:48:42;5.68;;;3.65;;
41921;SDS011;27609;51.002;5.354;2022-08-25T00:51:16;9.15;;;4.63;;
41921;SDS011;27609;51.002;5.354;2022-08-25T00:53:49;9.65;;;3.90;;
41921;SDS011;27609;51.002;5.354;2022-08-25T00:56:15;5.85;;;4.38;;
41921;SDS011;27609;51.002;5.354;2022-08-25T00:58:42;5.38;;;4.28;;
41921;SDS011;27609;51.002;5.354;2022-08-25T01:01:08;5.78;;;4.15;;
41921;SDS011;27609;51.002;5.354;2022-08-25T01:03:34;6.85;;;3.97;;
41921;SDS011;27609;51.002;5.354;2022-08-25T01:06:00;6.90;;;4.30;;
41921;SDS011;27609;51.002;5.354;2022-08-25T01:08:30;7.10;;;4.63;;
41921;SDS011;27609;51.002;5.354;2022-08-25T01:10:58;8.30;;;4.18;;
41921;SDS011;27609;51.002;5.354;2022-08-25T01:13:34;8.70;;;4.65;;
41921;SDS011;27609;51.002;5.354;2022-08-25T01:16:09;6.78;;;4.60;;
41921;SDS011;27609;51.002;5.354;2022-08-25T01:18:43;8.30;;;4.20;;
41921;SDS011;27609;51.002;5.354;2022-08-25T01:21:18;9.07;;;4.43;;
41921;SDS011;27609;51.002;5.354;2022-08-25T01:23:46;10.35;;;4.40;;
41921;SDS011;27609;51.002;5.354;2022-08-25T01:26:19;7.18;;;4.20;;
41921;SDS011;27609;51.002;5.354;2022-08-25T01:28:47;5.72;;;4.53;;
41921;SDS011;27609;51.002;5.354;2022-08-25T01:31:35;8.77;;;4.65;;
41921;SDS011;27609;51.002;5.354;2022-08-25T01:34:02;10.68;;;4.75;;
41921;SDS011;27609;51.002;5.354;2022-08-25T01:36:30;12.63;;;5.07;;
41921;SDS011;27609;51.002;5.354;2022-08-25T01:38:56;8.20;;;4.65;;
41921;SDS011;27609;51.002;5.354;2022-08-25T01:44:00;6.65;;;4.60;;
41921;SDS011;27609;51.002;5.354;2022-08-25T01:46:30;10.25;;;4.68;;
41921;SDS011;27609;51.002;5.354;2022-08-25T01:48:56;13.38;;;5.15;;
41921;SDS011;27609;51.002;5.354;2022-08-25T01:51:27;10.77;;;5.25;;
41921;SDS011;27609;51.002;5.354;2022-08-25T01:53:54;8.02;;;4.72;;
41921;SDS011;27609;51.002;5.354;2022-08-25T01:56:20;11.93;;;5.07;;
41921;SDS011;27609;51.002;5.354;2022-08-25T01:58:48;7.45;;;4.50;;
41921;SDS011;27609;51.002;5.354;2022-08-25T02:01:17;10.90;;;4.70;;
41921;SDS011;27609;51.002;5.354;2022-08-25T02:03:47;6.32;;;4.85;;
41921;SDS011;27609;51.002;5.354;2022-08-25T02:06:18;9.80;;;5.18;;
41921;SDS011;27609;51.002;5.354;2022-08-25T02:08:49;12.98;;;4.97;;
41921;SDS011;27609;51.002;5.354;2022-08-25T02:11:19;6.28;;;4.53;;
41921;SDS011;27609;51.002;5.354;2022-08-25T02:13:47;13.52;;;5.72;;
41921;SDS011;27609;51.002;5.354;2022-08-25T02:16:16;8.63;;;4.80;;
41921;SDS011;27609;51.002;5.354;2022-08-25T02:18:47;6.30;;;4.50;;
41921;SDS011;27609;51.002;5.354;2022-08-25T02:21:14;7.47;;;5.20;;
41921;SDS011;27609;51.002;5.354;2022-08-25T02:23:45;10.23;;;4.80;;
41921;SDS011;27609;51.002;5.354;2022-08-25T02:26:11;7.10;;;5.43;;
41921;SDS011;27609;51.002;5.354;2022-08-25T02:28:41;7.07;;;5.13;;
41921;SDS011;27609;51.002;5.354;2022-08-25T02:31:07;9.55;;;5.57;;
41921;SDS011;27609;51.002;5.354;2022-08-25T02:33:33;7.10;;;4.90;;
41921;SDS011;27609;51.002;5.354;2022-08-25T02:36:02;7.80;;;4.78;;
41921;SDS011;27609;51.002;5.354;2022-08-25T02:38:31;7.63;;;5.57;;
41921;SDS011;27609;51.002;5.354;2022-08-25T02:40:59;8.52;;;5.35;;
41921;SDS011;27609;51.002;5.354;2022-08-25T02:43:26;7.03;;;5.20;;
41921;SDS011;27609;51.002;5.354;2022-08-25T02:45:53;6.63;;;5.68;;
41921;SDS011;27609;51.002;5.354;2022-08-25T02:48:20;7.88;;;5.35;;
41921;SDS011;27609;51.002;5.354;2022-08-25T02:50:47;7.90;;;5.25;;
41921;SDS011;27609;51.002;5.354;2022-08-25T02:53:17;7.93;;;4.82;;
41921;SDS011;27609;51.002;5.354;2022-08-25T02:55:45;6.43;;;5.10;;
41921;SDS011;27609;51.002;5.354;2022-08-25T02:58:11;9.38;;;5.00;;
41921;SDS011;27609;51.002;5.354;2022-08-25T03:00:38;7.53;;;5.40;;
41921;SDS011;27609;51.002;5.354;2022-08-25T03:03:06;9.40;;;5.43;;
41921;SDS011;27609;51.002;5.354;2022-08-25T03:05:32;6.63;;;5.53;;
41921;SDS011;27609;51.002;5.354;2022-08-25T03:08:00;7.05;;;5.47;;
41921;SDS011;27609;51.002;5.354;2022-08-25T03:10:28;9.02;;;5.15;;
41921;SDS011;27609;51.002;5.354;2022-08-25T03:12:56;9.45;;;5.38;;
41921;SDS011;27609;51.002;5.354;2022-08-25T03:15:22;7.57;;;5.47;;
41921;SDS011;27609;51.002;5.354;2022-08-25T03:17:51;12.20;;;5.13;;
41921;SDS011;27609;51.002;5.354;2022-08-25T03:20:19;7.70;;;6.05;;
41921;SDS011;27609;51.002;5.354;2022-08-25T03:25:14;14.15;;;5.32;;
41921;SDS011;27609;51.002;5.354;2022-08-25T03:27:59;7.45;;;5.10;;
41921;SDS011;27609;51.002;5.354;2022-08-25T03:30:25;7.07;;;5.57;;
41921;SDS011;27609;51.002;5.354;2022-08-25T03:32:51;8.93;;;5.25;;
41921;SDS011;27609;51.002;5.354;2022-08-25T03:35:19;7.53;;;5.30;;
41921;SDS011;27609;51.002;5.354;2022-08-25T03:37:45;6.07;;;4.97;;
41921;SDS011;27609;51.002;5.354;2022-08-25T03:40:13;10.65;;;5.63;;
41921;SDS011;27609;51.002;5.354;2022-08-25T03:42:41;5.35;;;4.88;;
41921;SDS011;27609;51.002;5.354;2022-08-25T03:45:09;6.32;;;5.30;;
41921;SDS011;27609;51.002;5.354;2022-08-25T03:47:39;7.10;;;5.20;;
41921;SDS011;27609;51.002;5.354;2022-08-25T03:50:05;9.15;;;5.65;;
41921;SDS011;27609;51.002;5.354;2022-08-25T03:52:33;10.95;;;6.00;;
41921;SDS011;27609;51.002;5.354;2022-08-25T03:54:59;8.07;;;5.85;;
41921;SDS011;27609;51.002;5.354;2022-08-25T03:57:25;9.60;;;5.70;;
41921;SDS011;27609;51.002;5.354;2022-08-25T03:59:54;7.38;;;6.63;;
41921;SDS011;27609;51.002;5.354;2022-08-25T04:02:22;8.15;;;5.90;;
41921;SDS011;27609;51.002;5.354;2022-08-25T04:04:47;6.38;;;5.78;;
41921;SDS011;27609;51.002;5.354;2022-08-25T04:07:18;9.85;;;5.93;;
41921;SDS011;27609;51.002;5.354;2022-08-25T04:09:44;9.57;;;5.65;;
41921;SDS011;27609;51.002;5.354;2022-08-25T04:12:10;8.32;;;5.70;;
41921;SDS011;27609;51.002;5.354;2022-08-25T04:14:35;7.22;;;6.03;;
41921;SDS011;27609;51.002;5.354;2022-08-25T04:17:01;8.30;;;5.93;;
41921;SDS011;27609;51.002;5.354;2022-08-25T04:19:35;9.32;;;6.65;;
41921;SDS011;27609;51.002;5.354;2022-08-25T04:22:03;8.30;;;5.63;;
41921;SDS011;27609;51.002;5.354;2022-08-25T04:24:28;8.10;;;5.80;;
41921;SDS011;27609;51.002;5.354;2022-08-25T04:26:54;6.57;;;5.78;;
41921;SDS011;27609;51.002;5.354;2022-08-25T04:29:20;9.40;;;5.57;;
41921;SDS011;27609;51.002;5.354;2022-08-25T04:31:47;7.40;;;5.38;;
41921;SDS011;27609;51.002;5.354;2022-08-25T04:34:15;6.72;;;4.88;;
41921;SDS011;27609;51.002;5.354;2022-08-25T04:36:49;7.07;;;5.22;;
41921;SDS011;27609;51.002;5.354;2022-08-25T04:39:15;8.93;;;5.63;;
41921;SDS011;27609;51.002;5.354;2022-08-25T04:41:46;6.20;;;5.45;;
41921;SDS011;27609;51.002;5.354;2022-08-25T04:44:14;10.50;;;5.55;;
41921;SDS011;27609;51.002;5.354;2022-08-25T04:46:40;7.05;;;5.47;;
41921;SDS011;27609;51.002;5.354;2022-08-25T04:49:06;8.50;;;6.22;;
41921;SDS011;27609;51.002;5.354;2022-08-25T04:51:34;6.53;;;5.90;;
41921;SDS011;27609;51.002;5.354;2022-08-25T04:54:03;6.03;;;5.10;;
41921;SDS011;27609;51.002;5.354;2022-08-25T04:56:34;14.65;;;6.00;;
41921;SDS011;27609;51.002;5.354;2022-08-25T04:59:11;6.70;;;5.65;;
41921;SDS011;27609;51.002;5.354;2022-08-25T05:01:40;5.57;;;5.05;;
41921;SDS011;27609;51.002;5.354;2022-08-25T05:04:08;8.80;;;6.20;;
41921;SDS011;27609;51.002;5.354;2022-08-25T05:06:35;8.52;;;5.40;;
41921;SDS011;27609;51.002;5.354;2022-08-25T05:09:03;6.50;;;5.82;;
41921;SDS011;27609;51.002;5.354;2022-08-25T05:11:29;8.80;;;5.82;;
41921;SDS011;27609;51.002;5.354;2022-08-25T05:13:58;9.45;;;6.10;;
41921;SDS011;27609;51.002;5.354;2022-08-25T05:16:25;12.25;;;6.15;;
41921;SDS011;27609;51.002;5.354;2022-08-25T05:18:51;9.70;;;5.10;;
41921;SDS011;27609;51.002;5.354;2022-08-25T05:21:19;10.20;;;5.65;;
41921;SDS011;27609;51.002;5.354;2022-08-25T05:23:52;8.95;;;5.75;;
41921;SDS011;27609;51.002;5.354;2022-08-25T05:26:21;8.57;;;5.10;;
41921;SDS011;27609;51.002;5.354;2022-08-25T05:28:50;6.07;;;5.32;;
41921;SDS011;27609;51.002;5.354;2022-08-25T05:31:19;10.98;;;5.07;;
41921;SDS011;27609;51.002;5.354;2022-08-25T05:33:46;7.30;;;5.10;;
41921;SDS011;27609;51.002;5.354;2022-08-25T05:36:15;12.73;;;5.88;;
41921;SDS011;27609;51.002;5.354;2022-08-25T05:38:42;9.40;;;4.60;;
41921;SDS011;27609;51.002;5.354;2022-08-25T05:41:11;11.32;;;5.57;;
41921;SDS011;27609;51.002;5.354;2022-08-25T05:43:40;6.75;;;5.75;;
41921;SDS011;27609;51.002;5.354;2022-08-25T05:46:09;5.32;;;4.43;;
41921;SDS011;27609;51.002;5.354;2022-08-25T05:48:41;9.80;;;4.78;;
41921;SDS011;27609;51.002;5.354;2022-08-25T05:51:10;14.57;;;5.15;;
41921;SDS011;27609;51.002;5.354;2022-08-25T05:53:36;8.10;;;4.55;;
41921;SDS011;27609;51.002;5.354;2022-08-25T05:56:05;16.10;;;4.82;;
41921;SDS011;27609;51.002;5.354;2022-08-25T05:58:34;8.88;;;4.25;;
41921;SDS011;27609;51.002;5.354;2022-08-25T06:01:02;12.38;;;4.30;;
41921;SDS011;27609;51.002;5.354;2022-08-25T06:03:47;18.20;;;4.60;;
41921;SDS011;27609;51.002;5.354;2022-08-25T06:06:17;18.88;;;4.80;;
41921;SDS011;27609;51.002;5.354;2022-08-25T06:08:47;11.45;;;4.38;;
41921;SDS011;27609;51.002;5.354;2022-08-25T06:11:15;7.68;;;4.43;;
41921;SDS011;27609;51.002;5.354;2022-08-25T06:13:41;7.85;;;4.07;;
41921;SDS011;27609;51.002;5.354;2022-08-25T06:16:07;9.05;;;4.47;;
41921;SDS011;27609;51.002;5.354;2022-08-25T06:18:32;7.82;;;4.70;;
41921;SDS011;27609;51.002;5.354;2022-08-25T06:20:58;4.63;;;3.92;;
41921;SDS011;27609;51.002;5.354;2022-08-25T06:23:30;5.10;;;4.25;;
41921;SDS011;27609;51.002;5.354;2022-08-25T06:25:59;5.55;;;4.22;;
41921;SDS011;27609;51.002;5.354;2022-08-25T06:28:30;12.20;;;4.35;;
41921;SDS011;27609;51.002;5.354;2022-08-25T06:31:01;10.90;;;4.25;;
41921;SDS011;27609;51.002;5.354;2022-08-25T06:33:30;6.70;;;3.80;;
41921;SDS011;27609;51.002;5.354;2022-08-25T06:35:56;3.92;;;2.97;;
41921;SDS011;27609;51.002;5.354;2022-08-25T06:38:25;8.63;;;4.13;;
41921;SDS011;27609;51.002;5.354;2022-08-25T06:40:52;11.52;;;4.00;;
41921;SDS011;27609;51.002;5.354;2022-08-25T06:43:19;8.63;;;3.97;;
41921;SDS011;27609;51.002;5.354;2022-08-25T06:45:45;4.28;;;3.60;;
41921;SDS011;27609;51.002;5.354;2022-08-25T06:48:13;6.90;;;4.15;;
41921;SDS011;27609;51.002;5.354;2022-08-25T06:50:41;5.45;;;3.55;;
41921;SDS011;27609;51.002;5.354;2022-08-25T06:53:10;10.65;;;3.88;;
41921;SDS011;27609;51.002;5.354;2022-08-25T06:55:37;5.85;;;3.50;;
41921;SDS011;27609;51.002;5.354;2022-08-25T06:58:04;7.85;;;3.63;;
41921;SDS011;27609;51.002;5.354;2022-08-25T07:00:30;10.32;;;3.35;;
41921;SDS011;27609;51.002;5.354;2022-08-25T07:02:57;5.10;;;3.45;;
41921;SDS011;27609;51.002;5.354;2022-08-25T07:05:25;5.50;;;3.40;;
41921;SDS011;27609;51.002;5.354;2022-08-25T07:07:51;5.13;;;3.33;;
41921;SDS011;27609;51.002;5.354;2022-08-25T07:10:16;8.38;;;3.42;;
41921;SDS011;27609;51.002;5.354;2022-08-25T07:12:49;11.93;;;3.55;;
41921;SDS011;27609;51.002;5.354;2022-08-25T07:15:15;9.40;;;3.05;;
41921;SDS011;27609;51.002;5.354;2022-08-25T07:17:41;5.80;;;3.00;;
41921;SDS011;27609;51.002;5.354;2022-08-25T07:20:07;4.63;;;3.05;;
41921;SDS011;27609;51.002;5.354;2022-08-25T07:22:33;6.57;;;2.88;;
41921;SDS011;27609;51.002;5.354;2022-08-25T07:24:58;3.33;;;2.90;;
41921;SDS011;27609;51.002;5.354;2022-08-25T07:27:26;8.00;;;2.72;;
41921;SDS011;27609;51.002;5.354;2022-08-25T07:29:52;3.88;;;2.17;;
41921;SDS011;27609;51.002;5.354;2022-08-25T07:32:18;3.75;;;2.42;;
41921;SDS011;27609;51.002;5.354;2022-08-25T07:34:43;4.47;;;3.00;;
41921;SDS011;27609;51.002;5.354;2022-08-25T07:37:28;5.75;;;2.75;;
41921;SDS011;27609;51.002;5.354;2022-08-25T07:39:53;10.32;;;2.90;;
41921;SDS011;27609;51.002;5.354;2022-08-25T07:42:19;6.93;;;2.40;;
41921;SDS011;27609;51.002;5.354;2022-08-25T07:44:49;6.95;;;2.47;;
41921;SDS011;27609;51.002;5.354;2022-08-25T07:47:14;6.53;;;2.33;;
41921;SDS011;27609;51.002;5.354;2022-08-25T07:49:40;12.85;;;3.08;;
41921;SDS011;27609;51.002;5.354;2022-08-25T07:52:06;8.60;;;2.83;;
41921;SDS011;27609;51.002;5.354;2022-08-25T07:54:32;3.85;;;2.50;;
41921;SDS011;27609;51.002;5.354;2022-08-25T07:56:59;6.40;;;2.40;;
41921;SDS011;27609;51.002;5.354;2022-08-25T07:59:24;7.30;;;2.65;;
41921;SDS011;27609;51.002;5.354;2022-08-25T08:01:50;6.00;;;2.15;;
41921;SDS011;27609;51.002;5.354;2022-08-25T08:04:16;7.80;;;2.58;;
41921;SDS011;27609;51.002;5.354;2022-08-25T08:06:41;9.88;;;2.78;;
41921;SDS011;27609;51.002;5.354;2022-08-25T08:09:07;8.32;;;2.95;;
41921;SDS011;27609;51.002;5.354;2022-08-25T08:11:33;9.98;;;2.70;;
41921;SDS011;27609;51.002;5.354;2022-08-25T08:14:04;10.75;;;2.80;;
41921;SDS011;27609;51.002;5.354;2022-08-25T08:16:31;6.43;;;2.55;;
41921;SDS011;27609;51.002;5.354;2022-08-25T08:18:57;6.57;;;2.63;;
41921;SDS011;27609;51.002;5.354;2022-08-25T08:21:25;7.90;;;3.00;;
41921;SDS011;27609;51.002;5.354;2022-08-25T08:26:19;6.60;;;2.40;;
41921;SDS011;27609;51.002;5.354;2022-08-25T08:28:46;9.63;;;2.28;;
41921;SDS011;27609;51.002;5.354;2022-08-25T08:31:12;10.63;;;2.83;;
41921;SDS011;27609;51.002;5.354;2022-08-25T08:33:37;7.32;;;2.67;;
41921;SDS011;27609;51.002;5.354;2022-08-25T08:36:04;11.73;;;3.00;;
41921;SDS011;27609;51.002;5.354;2022-08-25T08:38:33;13.13;;;2.58;;
41921;SDS011;27609;51.002;5.354;2022-08-25T08:44:21;4.65;;;2.10;;
41921;SDS011;27609;51.002;5.354;2022-08-25T08:47:06;6.35;;;2.42;;
41921;SDS011;27609;51.002;5.354;2022-08-25T08:52:30;9.98;;;2.58;;
41921;SDS011;27609;51.002;5.354;2022-08-25T08:55:38;5.50;;;2.20;;
41921;SDS011;27609;51.002;5.354;2022-08-25T09:00:51;7.60;;;2.35;;
41921;SDS011;27609;51.002;5.354;2022-08-25T09:03:39;3.88;;;2.38;;
41921;SDS011;27609;51.002;5.354;2022-08-25T09:06:17;4.15;;;1.85;;
41921;SDS011;27609;51.002;5.354;2022-08-25T09:08:54;9.70;;;2.35;;
41921;SDS011;27609;51.002;5.354;2022-08-25T09:11:30;5.93;;;2.45;;
41921;SDS011;27609;51.002;5.354;2022-08-25T09:14:17;7.55;;;2.13;;
41921;SDS011;27609;51.002;5.354;2022-08-25T09:17:05;5.45;;;2.63;;
41921;SDS011;27609;51.002;5.354;2022-08-25T09:19:48;10.32;;;2.50;;
41921;SDS011;27609;51.002;5.354;2022-08-25T09:25:17;3.22;;;1.90;;
41921;SDS011;27609;51.002;5.354;2022-08-25T09:28:00;5.25;;;1.90;;
41921;SDS011;27609;51.002;5.354;2022-08-25T09:31:01;6.30;;;1.95;;
41921;SDS011;27609;51.002;5.354;2022-08-25T09:33:56;4.18;;;1.83;;
41921;SDS011;27609;51.002;5.354;2022-08-25T09:36:24;3.50;;;1.70;;
41921;SDS011;27609;51.002;5.354;2022-08-25T09:38:50;5.05;;;1.98;;
41921;SDS011;27609;51.002;5.354;2022-08-25T09:41:17;5.05;;;1.60;;
41921;SDS011;27609;51.002;5.354;2022-08-25T09:49:33;4.72;;;1.80;;
41921;SDS011;27609;51.002;5.354;2022-08-25T10:00:11;4.28;;;2.50;;
41921;SDS011;27609;51.002;5.354;2022-08-25T10:02:38;6.45;;;1.77;;
41921;SDS011;27609;51.002;5.354;2022-08-25T10:05:24;4.15;;;1.70;;
41921;SDS011;27609;51.002;5.354;2022-08-25T10:07:52;7.10;;;1.73;;
41921;SDS011;27609;51.002;5.354;2022-08-25T10:10:26;5.90;;;1.73;;
41921;SDS011;27609;51.002;5.354;2022-08-25T10:12:53;4.22;;;1.70;;
41921;SDS011;27609;51.002;5.354;2022-08-25T10:15:24;3.63;;;1.90;;
41921;SDS011;27609;51.002;5.354;2022-08-25T10:17:54;3.33;;;1.90;;
41921;SDS011;27609;51.002;5.354;2022-08-25T10:20:24;3.33;;;1.40;;
41921;SDS011;27609;51.002;5.354;2022-08-25T10:22:52;4.30;;;2.03;;
41921;SDS011;27609;51.002;5.354;2022-08-25T10:25:40;3.72;;;1.67;;
41921;SDS011;27609;51.002;5.354;2022-08-25T10:31:12;5.03;;;1.73;;
41921;SDS011;27609;51.002;5.354;2022-08-25T10:39:27;7.18;;;1.95;;
41921;SDS011;27609;51.002;5.354;2022-08-25T10:45:26;4.53;;;2.13;;
41921;SDS011;27609;51.002;5.354;2022-08-25T10:50:42;3.05;;;1.80;;
41921;SDS011;27609;51.002;5.354;2022-08-25T11:04:38;4.03;;;1.97;;
41921;SDS011;27609;51.002;5.354;2022-08-25T11:07:24;2.03;;;1.73;;
41921;SDS011;27609;51.002;5.354;2022-08-25T11:10:05;6.72;;;2.17;;
41921;SDS011;27609;51.002;5.354;2022-08-25T11:12:40;7.72;;;1.67;;
41921;SDS011;27609;51.002;5.354;2022-08-25T11:15:20;5.93;;;2.08;;
41921;SDS011;27609;51.002;5.354;2022-08-25T11:17:58;3.38;;;1.92;;
41921;SDS011;27609;51.002;5.354;2022-08-25T11:20:31;4.80;;;2.08;;
41921;SDS011;27609;51.002;5.354;2022-08-25T11:25:42;5.47;;;1.90;;
41921;SDS011;27609;51.002;5.354;2022-08-25T11:28:13;3.10;;;1.88;;
41921;SDS011;27609;51.002;5.354;2022-08-25T11:30:50;5.10;;;2.22;;
41921;SDS011;27609;51.002;5.354;2022-08-25T11:33:22;6.43;;;2.28;;
41921;SDS011;27609;51.002;5.354;2022-08-25T11:36:00;2.38;;;1.73;;
41921;SDS011;27609;51.002;5.354;2022-08-25T11:49:58;4.03;;;1.90;;
41921;SDS011;27609;51.002;5.354;2022-08-25T11:55:44;3.90;;;1.83;;
41921;SDS011;27609;51.002;5.354;2022-08-25T12:01:03;2.67;;;1.58;;
41921;SDS011;27609;51.002;5.354;2022-08-25T12:14:13;6.45;;;2.20;;
41921;SDS011;27609;51.002;5.354;2022-08-25T12:35:23;5.13;;;1.90;;
41921;SDS011;27609;51.002;5.354;2022-08-25T12:38:13;2.38;;;1.75;;
41921;SDS011;27609;51.002;5.354;2022-08-25T12:41:34;5.30;;;1.80;;
41921;SDS011;27609;51.002;5.354;2022-08-25T12:43:48;4.78;;;1.75;;
41921;SDS011;27609;51.002;5.354;2022-08-25T12:48:53;3.78;;;2.10;;
41921;SDS011;27609;51.002;5.354;2022-08-25T12:51:24;5.00;;;2.25;;
41921;SDS011;27609;51.002;5.354;2022-08-25T12:56:50;2.50;;;2.25;;
41921;SDS011;27609;51.002;5.354;2022-08-25T13:10:54;5.63;;;2.45;;
41921;SDS011;27609;51.002;5.354;2022-08-25T13:16:27;3.60;;;2.20;;
41921;SDS011;27609;51.002;5.354;2022-08-25T13:18:54;2.78;;;2.20;;
41921;SDS011;27609;51.002;5.354;2022-08-25T13:21:36;5.90;;;2.70;;
41921;SDS011;27609;51.002;5.354;2022-08-25T13:24:05;4.57;;;2.20;;
41921;SDS011;27609;51.002;5.354;2022-08-25T13:26:38;4.40;;;2.20;;
41921;SDS011;27609;51.002;5.354;2022-08-25T13:31:36;5.70;;;2.40;;
41921;SDS011;27609;51.002;5.354;2022-08-25T13:34:04;8.13;;;2.50;;
41921;SDS011;27609;51.002;5.354;2022-08-25T13:36:41;7.00;;;2.58;;
41921;SDS011;27609;51.002;5.354;2022-08-25T13:39:27;7.00;;;2.80;;
41921;SDS011;27609;51.002;5.354;2022-08-25T13:42:01;4.80;;;2.45;;
41921;SDS011;27609;51.002;5.354;2022-08-25T13:44:33;3.25;;;2.00;;
41921;SDS011;27609;51.002;5.354;2022-08-25T13:49:42;4.88;;;2.50;;
41921;SDS011;27609;51.002;5.354;2022-08-25T13:52:24;4.95;;;2.50;;
41921;SDS011;27609;51.002;5.354;2022-08-25T13:54:55;4.63;;;2.30;;
41921;SDS011;27609;51.002;5.354;2022-08-25T13:57:26;5.97;;;2.35;;
41921;SDS011;27609;51.002;5.354;2022-08-25T13:59:56;7.90;;;2.30;;
41921;SDS011;27609;51.002;5.354;2022-08-25T14:02:42;5.25;;;1.85;;
41921;SDS011;27609;51.002;5.354;2022-08-25T14:05:15;4.65;;;2.17;;
41921;SDS011;27609;51.002;5.354;2022-08-25T14:07:54;10.93;;;2.45;;
41921;SDS011;27609;51.002;5.354;2022-08-25T14:10:31;7.97;;;2.42;;
41921;SDS011;27609;51.002;5.354;2022-08-25T14:13:09;4.90;;;2.47;;
41921;SDS011;27609;51.002;5.354;2022-08-25T14:15:37;3.13;;;2.20;;
41921;SDS011;27609;51.002;5.354;2022-08-25T14:20:41;5.93;;;2.30;;
41921;SDS011;27609;51.002;5.354;2022-08-25T14:23:10;3.85;;;2.40;;
41921;SDS011;27609;51.002;5.354;2022-08-25T14:25:43;4.13;;;2.20;;
41921;SDS011;27609;51.002;5.354;2022-08-25T14:28:14;3.08;;;2.22;;
41921;SDS011;27609;51.002;5.354;2022-08-25T14:30:43;4.95;;;2.60;;
41921;SDS011;27609;51.002;5.354;2022-08-25T14:33:14;5.53;;;2.38;;
41921;SDS011;27609;51.002;5.354;2022-08-25T14:35:42;2.92;;;1.90;;
41921;SDS011;27609;51.002;5.354;2022-08-25T14:38:11;3.28;;;2.20;;
41921;SDS011;27609;51.002;5.354;2022-08-25T14:40:37;7.03;;;3.17;;
41921;SDS011;27609;51.002;5.354;2022-08-25T14:43:04;6.68;;;2.85;;
41921;SDS011;27609;51.002;5.354;2022-08-25T14:45:30;5.22;;;2.33;;
41921;SDS011;27609;51.002;5.354;2022-08-25T14:48:01;7.63;;;2.45;;
41921;SDS011;27609;51.002;5.354;2022-08-25T14:50:29;8.68;;;2.15;;
41921;SDS011;27609;51.002;5.354;2022-08-25T14:52:56;5.75;;;2.60;;
41921;SDS011;27609;51.002;5.354;2022-08-25T14:55:22;2.55;;;2.00;;
41921;SDS011;27609;51.002;5.354;2022-08-25T14:57:47;14.88;;;3.35;;
41921;SDS011;27609;51.002;5.354;2022-08-25T15:00:13;4.55;;;2.65;;
41921;SDS011;27609;51.002;5.354;2022-08-25T15:02:43;7.28;;;2.42;;
41921;SDS011;27609;51.002;5.354;2022-08-25T15:05:12;4.70;;;2.20;;
41921;SDS011;27609;51.002;5.354;2022-08-25T15:07:40;6.40;;;2.43;;
41921;SDS011;27609;51.002;5.354;2022-08-25T15:10:25;4.13;;;2.05;;
41921;SDS011;27609;51.002;5.354;2022-08-25T15:12:50;3.55;;;2.22;;
41921;SDS011;27609;51.002;5.354;2022-08-25T15:15:16;4.75;;;2.25;;
41921;SDS011;27609;51.002;5.354;2022-08-25T15:17:42;6.05;;;2.00;;
41921;SDS011;27609;51.002;5.354;2022-08-25T15:20:09;3.53;;;2.13;;
41921;SDS011;27609;51.002;5.354;2022-08-25T15:22:35;2.45;;;2.00;;
41921;SDS011;27609;51.002;5.354;2022-08-25T15:25:01;2.17;;;1.90;;
41921;SDS011;27609;51.002;5.354;2022-08-25T15:27:26;3.20;;;2.38;;
41921;SDS011;27609;51.002;5.354;2022-08-25T15:29:52;4.05;;;1.90;;
41921;SDS011;27609;51.002;5.354;2022-08-25T15:32:20;5.57;;;2.45;;
41921;SDS011;27609;51.002;5.354;2022-08-25T15:34:46;2.83;;;2.10;;
41921;SDS011;27609;51.002;5.354;2022-08-25T15:37:15;7.05;;;2.00;;
41921;SDS011;27609;51.002;5.354;2022-08-25T15:39:41;8.30;;;7.35;;
41921;SDS011;27609;51.002;5.354;2022-08-25T15:42:08;10.02;;;6.35;;
41921;SDS011;27609;51.002;5.354;2022-08-25T15:44:36;7.68;;;5.78;;
41921;SDS011;27609;51.002;5.354;2022-08-25T15:47:05;8.38;;;4.53;;
41921;SDS011;27609;51.002;5.354;2022-08-25T15:49:31;7.20;;;4.22;;
41921;SDS011;27609;51.002;5.354;2022-08-25T15:51:58;7.10;;;3.20;;
41921;SDS011;27609;51.002;5.354;2022-08-25T15:54:24;6.30;;;2.63;;
41921;SDS011;27609;51.002;5.354;2022-08-25T15:56:51;6.20;;;3.28;;
41921;SDS011;27609;51.002;5.354;2022-08-25T15:59:17;5.03;;;2.65;;
41921;SDS011;27609;51.002;5.354;2022-08-25T16:01:43;4.18;;;2.40;;
41921;SDS011;27609;51.002;5.354;2022-08-25T16:04:10;5.00;;;2.53;;
41921;SDS011;27609;51.002;5.354;2022-08-25T16:06:36;2.72;;;2.30;;
41921;SDS011;27609;51.002;5.354;2022-08-25T16:09:03;5.53;;;2.33;;
41921;SDS011;27609;51.002;5.354;2022-08-25T16:11:30;9.57;;;2.30;;
41921;SDS011;27609;51.002;5.354;2022-08-25T16:13:59;9.05;;;2.42;;
41921;SDS011;27609;51.002;5.354;2022-08-25T16:16:26;6.20;;;2.50;;
41921;SDS011;27609;51.002;5.354;2022-08-25T16:18:53;5.88;;;2.50;;
41921;SDS011;27609;51.002;5.354;2022-08-25T16:21:27;7.68;;;2.63;;
41921;SDS011;27609;51.002;5.354;2022-08-25T16:23:57;6.22;;;2.90;;
41921;SDS011;27609;51.002;5.354;2022-08-25T16:26:24;4.10;;;2.40;;
41921;SDS011;27609;51.002;5.354;2022-08-25T16:28:51;4.13;;;2.72;;
41921;SDS011;27609;51.002;5.354;2022-08-25T16:31:17;4.25;;;2.63;;
41921;SDS011;27609;51.002;5.354;2022-08-25T16:33:46;3.45;;;2.42;;
41921;SDS011;27609;51.002;5.354;2022-08-25T16:38:40;6.72;;;2.60;;
41921;SDS011;27609;51.002;5.354;2022-08-25T16:41:07;4.55;;;2.80;;
41921;SDS011;27609;51.002;5.354;2022-08-25T16:43:35;9.05;;;2.70;;
41921;SDS011;27609;51.002;5.354;2022-08-25T16:46:03;3.20;;;2.50;;
41921;SDS011;27609;51.002;5.354;2022-08-25T16:48:30;7.65;;;2.47;;
41921;SDS011;27609;51.002;5.354;2022-08-25T16:50:56;2.90;;;2.38;;
41921;SDS011;27609;51.002;5.354;2022-08-25T16:53:22;3.22;;;2.72;;
41921;SDS011;27609;51.002;5.354;2022-08-25T16:56:07;3.42;;;2.53;;
41921;SDS011;27609;51.002;5.354;2022-08-25T16:58:33;6.97;;;2.50;;
41921;SDS011;27609;51.002;5.354;2022-08-25T17:01:09;2.83;;;2.63;;
41921;SDS011;27609;51.002;5.354;2022-08-25T17:03:36;6.40;;;2.75;;
41921;SDS011;27609;51.002;5.354;2022-08-25T17:06:03;4.22;;;2.65;;
41921;SDS011;27609;51.002;5.354;2022-08-25T17:08:30;6.85;;;2.72;;
41921;SDS011;27609;51.002;5.354;2022-08-25T17:13:37;5.03;;;2.65;;
41921;SDS011;27609;51.002;5.354;2022-08-25T17:16:05;3.42;;;2.78;;
41921;SDS011;27609;51.002;5.354;2022-08-25T17:18:31;6.68;;;2.85;;
41921;SDS011;27609;51.002;5.354;2022-08-25T17:21:01;5.68;;;2.50;;
41921;SDS011;27609;51.002;5.354;2022-08-25T17:23:30;7.47;;;2.40;;
41921;SDS011;27609;51.002;5.354;2022-08-25T17:25:57;3.92;;;2.70;;